Time,TemperatureF,DewpointF,PressureIn,WindDirection,WindDirectionDegrees,WindSpeedMPH,WindSpeedGustMPH,Humidity,HourlyPrecipIn,Conditions,Clouds,dailyrainin,SoftwareType,DateUTC
2013-08-25 00:01:00,55.1,53.4,30.31,ENE,60,0.0,0.0,94,0.00,,,0.00,Wunderground v.1.15,2013-08-25 04:01:00,
2013-08-25 00:02:00,55.0,53.3,30.31,ENE,60,0.0,0.0,94,0.00,,,0.00,Wunderground v.1.15,2013-08-25 04:02:00,
2013-08-25 00:03:00,54.9,53.2,30.31,ENE,60,0.0,0.0,94,0.00,,,0.00,Wunderground v.1.15,2013-08-25 04:03:00,
2013-08-25 00:09:00,54.8,53.1,30.31,ENE,60,0.0,0.0,94,0.00,,,0.00,Wunderground v.1.15,2013-08-25 04:09:00,
2013-08-25 00:16:00,54.7,53.0,30.32,ENE,60,0.0,0.0,94,0.00,,,0.00,Wunderground v.1.15,2013-08-25 04:16:00,
2013-08-25 00:21:00,54.6,52.9,30.31,ENE,60,0.0,0.0,94,0.00,,,0.00,Wunderground v.1.15,2013-08-25 04:21:00,
2013-08-25 00:27:00,54.7,53.3,30.31,ENE,60,0.0,0.0,95,0.00,,,0.00,Wunderground v.1.15,2013-08-25 04:27:00,
2013-08-25 00:32:00,54.6,53.2,30.31,ENE,60,0.0,0.0,95,0.00,,,0.00,Wunderground v.1.15,2013-08-25 04:32:00,
2013-08-25 00:37:00,54.4,53.0,30.31,ENE,60,0.0,0.0,95,0.00,,,0.00,Wunderground v.1.15,2013-08-25 04:37:00,
2013-08-25 00:43:00,54.1,52.4,30.31,ENE,60,0.0,0.0,94,0.00,,,0.00,Wunderground v.1.15,2013-08-25 04:43:00,
2013-08-25 00:49:00,54.0,52.6,30.30,ENE,60,0.0,0.0,95,0.00,,,0.00,Wunderground v.1.15,2013-08-25 04:49:00,
2013-08-25 00:55:00,54.0,52.6,30.30,ENE,60,0.0,0.0,95,0.00,,,0.00,Wunderground v.1.15,2013-08-25 04:55:00,
2013-08-25 01:01:00,53.9,52.5,30.31,ENE,60,0.0,0.0,95,0.00,,,0.00,Wunderground v.1.15,2013-08-25 05:01:00,
2013-08-25 01:07:00,54.0,52.6,30.31,ENE,60,0.0,0.0,95,0.00,,,0.00,Wunderground v.1.15,2013-08-25 05:07:00,
2013-08-25 01:15:00,53.9,52.5,30.31,ENE,60,0.0,0.0,95,0.00,,,0.00,Wunderground v.1.15,2013-08-25 05:15:00,
2013-08-25 01:21:00,54.0,52.6,30.31,ENE,60,0.0,0.0,95,0.00,,,0.00,Wunderground v.1.15,2013-08-25 05:21:00,
2013-08-25 01:26:00,54.0,52.6,30.31,ENE,60,0.0,0.0,95,0.00,,,0.00,Wunderground v.1.15,2013-08-25 05:26:00,
2013-08-25 01:32:00,53.9,52.5,30.30,ENE,60,0.0,0.0,95,0.00,,,0.00,Wunderground v.1.15,2013-08-25 05:32:00,
2013-08-25 01:37:00,53.8,52.4,30.31,ENE,60,0.0,0.0,95,0.00,,,0.00,Wunderground v.1.15,2013-08-25 05:37:00,
2013-08-25 01:42:00,53.6,52.2,30.31,ENE,60,0.0,0.0,95,0.00,,,0.00,Wunderground v.1.15,2013-08-25 05:42:00,
2013-08-25 01:49:00,53.3,51.9,30.30,ENE,60,0.0,0.0,95,0.00,,,0.00,Wunderground v.1.15,2013-08-25 05:49:00,
2013-08-25 01:54:00,53.2,51.8,30.30,ENE,60,0.0,0.0,95,0.00,,,0.00,Wunderground v.1.15,2013-08-25 05:54:00,
2013-08-25 01:59:00,53.1,51.7,30.30,ENE,60,0.0,0.0,95,0.00,,,0.00,Wunderground v.1.15,2013-08-25 05:59:00,
2013-08-25 02:05:00,53.1,51.7,30.30,ENE,60,0.0,0.0,95,0.00,,,0.00,Wunderground v.1.15,2013-08-25 06:05:00,
2013-08-25 02:10:00,53.1,51.7,30.30,ENE,60,0.0,0.0,95,0.00,,,0.00,Wunderground v.1.15,2013-08-25 06:10:00,
2013-08-25 02:16:00,53.0,51.6,30.30,ENE,60,0.0,0.0,95,0.00,,,0.00,Wunderground v.1.15,2013-08-25 06:16:00,
2013-08-25 02:22:00,52.8,51.4,30.30,ENE,60,0.0,0.0,95,0.00,,,0.00,Wunderground v.1.15,2013-08-25 06:22:00,
2013-08-25 02:29:00,52.8,51.4,30.30,ENE,60,0.0,0.0,95,0.00,,,0.00,Wunderground v.1.15,2013-08-25 06:29:00,
2013-08-25 02:34:00,52.6,51.2,30.30,ENE,60,0.0,0.0,95,0.00,,,0.00,Wunderground v.1.15,2013-08-25 06:34:00,
2013-08-25 02:39:00,52.7,51.3,30.30,ENE,60,0.0,0.0,95,0.00,,,0.00,Wunderground v.1.15,2013-08-25 06:39:00,
2013-08-25 02:44:00,52.7,51.3,30.30,ENE,60,0.0,0.0,95,0.00,,,0.00,Wunderground v.1.15,2013-08-25 06:44:00,
2013-08-25 02:50:00,52.9,51.8,30.30,ENE,60,0.0,0.0,96,0.00,,,0.00,Wunderground v.1.15,2013-08-25 06:50:00,
2013-08-25 02:56:00,53.0,51.9,30.30,ENE,60,0.0,0.0,96,0.00,,,0.00,Wunderground v.1.15,2013-08-25 06:56:00,
2013-08-25 03:01:00,53.0,51.9,30.30,ENE,60,0.0,0.0,96,0.00,,,0.00,Wunderground v.1.15,2013-08-25 07:01:00,
2013-08-25 03:07:00,52.9,51.8,30.30,ENE,60,0.0,0.0,96,0.00,,,0.00,Wunderground v.1.15,2013-08-25 07:07:00,
2013-08-25 03:13:00,52.6,51.2,30.30,ENE,60,0.0,0.0,95,0.00,,,0.00,Wunderground v.1.15,2013-08-25 07:13:00,
2013-08-25 03:20:00,52.4,51.0,30.31,ENE,60,0.0,0.0,95,0.00,,,0.00,Wunderground v.1.15,2013-08-25 07:20:00,
2013-08-25 03:25:00,52.4,51.3,30.31,ENE,60,0.0,0.0,96,0.00,,,0.00,Wunderground v.1.15,2013-08-25 07:25:00,
2013-08-25 03:32:00,52.3,51.2,30.31,ENE,60,0.0,0.0,96,0.00,,,0.00,Wunderground v.1.15,2013-08-25 07:32:00,
2013-08-25 03:37:00,52.3,51.2,30.31,ENE,60,0.0,0.0,96,0.00,,,0.00,Wunderground v.1.15,2013-08-25 07:37:00,
2013-08-25 03:42:00,52.2,51.1,30.31,ENE,60,0.0,0.0,96,0.00,,,0.00,Wunderground v.1.15,2013-08-25 07:42:00,
2013-08-25 03:47:00,52.2,51.1,30.31,ENE,60,0.0,0.0,96,0.00,,,0.00,Wunderground v.1.15,2013-08-25 07:47:00,
2013-08-25 03:54:00,52.2,51.1,30.31,ENE,60,0.0,0.0,96,0.00,,,0.00,Wunderground v.1.15,2013-08-25 07:54:00,
2013-08-25 03:59:00,52.4,51.3,30.31,ENE,60,0.0,0.0,96,0.00,,,0.00,Wunderground v.1.15,2013-08-25 07:59:00,
2013-08-25 04:04:00,52.4,51.3,30.31,ENE,60,0.0,0.0,96,0.00,,,0.00,Wunderground v.1.15,2013-08-25 08:04:00,
2013-08-25 04:09:00,52.4,51.3,30.31,ENE,60,0.0,0.0,96,0.00,,,0.00,Wunderground v.1.15,2013-08-25 08:09:00,
2013-08-25 04:14:00,52.2,51.1,30.31,ENE,60,0.0,0.0,96,0.00,,,0.00,Wunderground v.1.15,2013-08-25 08:14:00,
2013-08-25 04:20:00,52.5,51.4,30.31,ENE,60,0.0,0.0,96,0.00,,,0.00,Wunderground v.1.15,2013-08-25 08:20:00,
2013-08-25 04:25:00,52.5,51.4,30.32,ENE,60,0.0,0.0,96,0.00,,,0.00,Wunderground v.1.15,2013-08-25 08:25:00,
2013-08-25 04:32:00,52.7,51.6,30.32,ENE,60,0.0,0.0,96,0.00,,,0.00,Wunderground v.1.15,2013-08-25 08:32:00,
2013-08-25 04:37:00,52.7,51.6,30.32,ENE,60,0.0,0.0,96,0.00,,,0.00,Wunderground v.1.15,2013-08-25 08:37:00,
2013-08-25 04:42:00,52.3,51.2,30.32,ENE,60,0.0,0.0,96,0.00,,,0.00,Wunderground v.1.15,2013-08-25 08:42:00,
2013-08-25 04:47:00,52.1,51.0,30.32,ENE,60,0.0,0.0,96,0.00,,,0.00,Wunderground v.1.15,2013-08-25 08:47:00,
2013-08-25 04:53:00,52.0,50.9,30.32,ENE,60,0.0,0.0,96,0.00,,,0.00,Wunderground v.1.15,2013-08-25 08:53:00,
2013-08-25 04:59:00,52.1,51.0,30.32,ENE,60,0.0,0.0,96,0.00,,,0.00,Wunderground v.1.15,2013-08-25 08:59:00,
2013-08-25 05:04:00,51.8,50.7,30.33,ENE,60,0.0,0.0,96,0.00,,,0.00,Wunderground v.1.15,2013-08-25 09:04:00,
2013-08-25 05:10:00,51.5,50.4,30.33,ENE,60,0.0,0.0,96,0.00,,,0.00,Wunderground v.1.15,2013-08-25 09:10:00,
2013-08-25 05:16:00,51.3,50.2,30.33,ENE,60,0.0,0.0,96,0.00,,,0.00,Wunderground v.1.15,2013-08-25 09:16:00,
2013-08-25 05:21:00,51.3,50.2,30.33,ENE,60,0.0,0.0,96,0.00,,,0.00,Wunderground v.1.15,2013-08-25 09:21:00,
2013-08-25 05:26:00,51.2,50.1,30.33,ENE,60,0.0,0.0,96,0.00,,,0.00,Wunderground v.1.15,2013-08-25 09:26:00,
2013-08-25 05:38:00,50.8,49.7,30.34,ENE,60,0.0,0.0,96,0.00,,,0.00,Wunderground v.1.15,2013-08-25 09:38:00,
2013-08-25 05:44:00,50.8,49.7,30.34,ENE,60,0.0,0.0,96,0.00,,,0.00,Wunderground v.1.15,2013-08-25 09:44:00,
2013-08-25 05:49:00,50.8,49.7,30.34,ENE,60,0.0,0.0,96,0.00,,,0.00,Wunderground v.1.15,2013-08-25 09:49:00,
2013-08-25 05:55:00,51.0,49.9,30.34,ENE,60,0.0,0.0,96,0.00,,,0.00,Wunderground v.1.15,2013-08-25 09:55:00,
2013-08-25 06:01:00,51.1,50.0,30.34,ENE,60,0.0,0.0,96,0.00,,,0.00,Wunderground v.1.15,2013-08-25 10:01:00,
2013-08-25 06:06:00,51.1,50.0,30.35,ENE,60,0.0,0.0,96,0.00,,,0.00,Wunderground v.1.15,2013-08-25 10:06:00,
2013-08-25 06:12:00,51.0,49.9,30.35,ENE,60,0.0,0.0,96,0.00,,,0.00,Wunderground v.1.15,2013-08-25 10:12:00,
2013-08-25 06:19:00,50.9,49.8,30.35,ENE,60,0.0,0.0,96,0.00,,,0.00,Wunderground v.1.15,2013-08-25 10:19:00,
2013-08-25 06:25:00,50.8,49.7,30.35,ENE,60,0.0,0.0,96,0.00,,,0.00,Wunderground v.1.15,2013-08-25 10:25:00,
2013-08-25 06:34:00,50.3,49.2,30.36,ENE,60,0.0,0.0,96,0.00,,,0.00,Wunderground v.1.15,2013-08-25 10:34:00,
2013-08-25 06:40:00,50.2,49.1,30.36,ENE,60,0.0,0.0,96,0.00,,,0.00,Wunderground v.1.15,2013-08-25 10:40:00,
2013-08-25 06:46:00,50.2,49.1,30.36,ENE,60,0.0,0.0,96,0.00,,,0.00,Wunderground v.1.15,2013-08-25 10:46:00,
2013-08-25 06:51:00,50.1,49.0,30.36,ENE,60,0.0,0.0,96,0.00,,,0.00,Wunderground v.1.15,2013-08-25 10:51:00,
2013-08-25 06:56:00,50.2,49.1,30.36,ENE,60,0.0,0.0,96,0.00,,,0.00,Wunderground v.1.15,2013-08-25 10:56:00,
2013-08-25 07:04:00,50.2,49.1,30.37,ENE,60,0.0,0.0,96,0.00,,,0.00,Wunderground v.1.15,2013-08-25 11:04:00,
2013-08-25 07:10:00,50.2,49.1,30.37,ENE,60,0.0,0.0,96,0.00,,,0.00,Wunderground v.1.15,2013-08-25 11:10:00,
2013-08-25 07:16:00,50.5,49.4,30.37,ENE,60,0.0,0.0,96,0.00,,,0.00,Wunderground v.1.15,2013-08-25 11:16:00,
2013-08-25 07:21:00,51.0,50.2,30.37,ENE,60,0.0,0.0,97,0.00,,,0.00,Wunderground v.1.15,2013-08-25 11:21:00,
2013-08-25 07:27:00,51.6,50.8,30.37,ENE,60,0.0,0.0,97,0.00,,,0.00,Wunderground v.1.15,2013-08-25 11:27:00,
2013-08-25 07:34:00,52.7,51.9,30.38,ENE,60,0.0,0.0,97,0.00,,,0.00,Wunderground v.1.15,2013-08-25 11:34:00,
2013-08-25 07:39:00,53.5,52.7,30.37,ENE,60,0.0,0.0,97,0.00,,,0.00,Wunderground v.1.15,2013-08-25 11:39:00,
2013-08-25 07:46:00,54.6,53.8,30.38,ENE,60,0.0,0.0,97,0.00,,,0.00,Wunderground v.1.15,2013-08-25 11:46:00,
2013-08-25 07:51:00,55.6,54.8,30.38,ENE,60,0.0,0.0,97,0.00,,,0.00,Wunderground v.1.15,2013-08-25 11:51:00,
2013-08-25 07:56:00,56.0,55.2,30.38,ENE,60,0.0,0.0,97,0.00,,,0.00,Wunderground v.1.15,2013-08-25 11:56:00,
2013-08-25 08:02:00,56.6,55.8,30.38,ENE,60,0.0,0.0,97,0.00,,,0.00,Wunderground v.1.15,2013-08-25 12:02:00,
2013-08-25 08:09:00,57.5,56.7,30.38,ENE,60,0.0,0.0,97,0.00,,,0.00,Wunderground v.1.15,2013-08-25 12:09:00,
2013-08-25 08:16:00,58.5,57.9,30.38,ENE,60,0.0,0.0,98,0.00,,,0.00,Wunderground v.1.15,2013-08-25 12:16:00,
2013-08-25 08:21:00,59.3,58.4,30.38,ENE,60,0.0,0.0,97,0.00,,,0.00,Wunderground v.1.15,2013-08-25 12:21:00,
2013-08-25 08:26:00,60.1,59.5,30.38,ENE,60,0.0,0.0,98,0.00,,,0.00,Wunderground v.1.15,2013-08-25 12:26:00,
2013-08-25 08:32:00,60.7,60.1,30.38,ENE,60,0.0,0.0,98,0.00,,,0.00,Wunderground v.1.15,2013-08-25 12:32:00,
2013-08-25 08:38:00,61.1,60.2,30.38,ENE,60,0.0,0.0,97,0.00,,,0.00,Wunderground v.1.15,2013-08-25 12:38:00,
2013-08-25 08:43:00,61.7,60.8,30.38,ENE,60,0.0,0.0,97,0.00,,,0.00,Wunderground v.1.15,2013-08-25 12:43:00,
2013-08-25 08:48:00,62.2,61.0,30.38,ENE,60,0.0,1.0,96,0.00,,,0.00,Wunderground v.1.15,2013-08-25 12:48:00,
2013-08-25 08:54:00,62.9,61.1,30.38,ENE,60,0.0,0.0,94,0.00,,,0.00,Wunderground v.1.15,2013-08-25 12:54:00,
2013-08-25 08:59:00,63.9,61.2,30.38,ENE,60,0.0,0.0,91,0.00,,,0.00,Wunderground v.1.15,2013-08-25 12:59:00,
2013-08-25 09:05:00,64.5,61.2,30.38,ENE,60,0.0,0.0,89,0.00,,,0.00,Wunderground v.1.15,2013-08-25 13:05:00,
2013-08-25 09:13:00,65.5,61.5,30.38,ENE,60,0.0,0.0,87,0.00,,,0.00,Wunderground v.1.15,2013-08-25 13:13:00,
2013-08-25 09:20:00,66.2,61.2,30.38,ENE,60,0.0,1.0,84,0.00,,,0.00,Wunderground v.1.15,2013-08-25 13:20:00,
2013-08-25 09:25:00,66.5,60.8,30.39,ENE,60,0.0,2.0,82,0.00,,,0.00,Wunderground v.1.15,2013-08-25 13:25:00,
2013-08-25 09:31:00,66.8,61.8,30.38,ENE,60,0.0,0.0,84,0.00,,,0.00,Wunderground v.1.15,2013-08-25 13:31:00,
2013-08-25 09:37:00,67.2,61.5,30.38,ENE,60,0.0,1.0,82,0.00,,,0.00,Wunderground v.1.15,2013-08-25 13:37:00,
2013-08-25 09:42:00,68.1,62.0,30.38,ENE,60,0.0,0.0,81,0.00,,,0.00,Wunderground v.1.15,2013-08-25 13:42:00,
2013-08-25 09:47:00,68.7,61.9,30.38,ENE,60,0.0,2.0,79,0.00,,,0.00,Wunderground v.1.15,2013-08-25 13:47:00,
2013-08-25 09:53:00,68.8,62.4,30.38,ENE,60,0.0,0.0,80,0.00,,,0.00,Wunderground v.1.15,2013-08-25 13:53:00,
2013-08-25 09:58:00,69.2,63.5,30.38,ENE,60,0.0,0.0,82,0.00,,,0.00,Wunderground v.1.15,2013-08-25 13:58:00,
2013-08-25 10:04:00,70.3,63.1,30.38,ENE,60,0.0,2.0,78,0.00,,,0.00,Wunderground v.1.15,2013-08-25 14:04:00,
2013-08-25 10:10:00,70.8,63.6,30.38,ENE,60,0.0,2.0,78,0.00,,,0.00,Wunderground v.1.15,2013-08-25 14:10:00,
2013-08-25 10:16:00,71.5,63.5,30.38,ENE,60,0.0,1.0,76,0.00,,,0.00,Wunderground v.1.15,2013-08-25 14:16:00,
2013-08-25 10:21:00,72.1,64.1,30.38,ENE,60,0.0,0.0,76,0.00,,,0.00,Wunderground v.1.15,2013-08-25 14:21:00,
2013-08-25 10:26:00,72.3,63.2,30.37,ENE,60,0.0,1.0,73,0.00,,,0.00,Wunderground v.1.15,2013-08-25 14:26:00,
2013-08-25 10:32:00,72.0,63.3,30.37,ENE,60,1.0,1.0,74,0.00,,,0.00,Wunderground v.1.15,2013-08-25 14:32:00,
2013-08-25 10:38:00,71.9,63.9,30.37,ENE,60,1.0,1.0,76,0.00,,,0.00,Wunderground v.1.15,2013-08-25 14:38:00,
2013-08-25 10:44:00,72.9,63.7,30.37,ENE,60,0.0,2.0,73,0.00,,,0.00,Wunderground v.1.15,2013-08-25 14:44:00,
2013-08-25 10:49:00,73.4,63.8,30.37,ENE,60,0.0,2.0,72,0.00,,,0.00,Wunderground v.1.15,2013-08-25 14:49:00,
2013-08-25 10:54:00,74.0,64.4,30.36,ENE,60,0.0,0.0,72,0.00,,,0.00,Wunderground v.1.15,2013-08-25 14:54:00,
2013-08-25 11:00:00,74.1,64.1,30.36,ENE,60,1.0,2.0,71,0.00,,,0.00,Wunderground v.1.15,2013-08-25 15:00:00,
2013-08-25 11:06:00,74.3,65.5,30.36,ENE,60,1.0,4.0,74,0.00,,,0.00,Wunderground v.1.15,2013-08-25 15:06:00,
2013-08-25 11:11:00,74.2,63.8,30.37,ENE,60,1.0,2.0,70,0.00,,,0.00,Wunderground v.1.15,2013-08-25 15:11:00,
2013-08-25 11:17:00,74.3,64.3,30.37,ENE,60,1.0,3.0,71,0.00,,,0.00,Wunderground v.1.15,2013-08-25 15:17:00,
2013-08-25 11:23:00,74.1,65.3,30.36,ENE,60,1.0,1.0,74,0.00,,,0.00,Wunderground v.1.15,2013-08-25 15:23:00,
2013-08-25 11:28:00,74.2,64.2,30.36,ENE,63,1.0,3.0,71,0.00,,,0.00,Wunderground v.1.15,2013-08-25 15:28:00,
2013-08-25 11:33:00,74.6,65.0,30.36,ENE,63,2.0,2.0,72,0.00,,,0.00,Wunderground v.1.15,2013-08-25 15:33:00,
2013-08-25 11:38:00,74.9,64.9,30.37,ENE,65,1.0,5.0,71,0.00,,,0.00,Wunderground v.1.15,2013-08-25 15:38:00,
2013-08-25 11:44:00,75.0,65.4,30.36,ENE,68,2.0,2.0,72,0.00,,,0.00,Wunderground v.1.15,2013-08-25 15:44:00,
2013-08-25 11:50:00,75.6,65.1,30.36,ENE,77,2.0,3.0,70,0.00,,,0.00,Wunderground v.1.15,2013-08-25 15:50:00,
2013-08-25 11:55:00,76.2,65.3,30.36,ENE,77,1.0,1.0,69,0.00,,,0.00,Wunderground v.1.15,2013-08-25 15:55:00,
2013-08-25 12:01:00,76.7,64.9,30.36,ENE,76,0.0,1.0,67,0.00,,,0.00,Wunderground v.1.15,2013-08-25 16:01:00,
2013-08-25 12:07:00,77.1,65.3,30.35,NNW,340,1.0,2.0,67,0.00,,,0.00,Wunderground v.1.15,2013-08-25 16:07:00,
2013-08-25 12:12:00,76.4,64.2,30.35,WNW,294,1.0,3.0,66,0.00,,,0.00,Wunderground v.1.15,2013-08-25 16:12:00,
2013-08-25 12:17:00,75.9,63.7,30.35,ESE,114,1.0,5.0,66,0.00,,,0.00,Wunderground v.1.15,2013-08-25 16:17:00,
2013-08-25 12:22:00,76.2,64.0,30.35,NNE,17,1.0,1.0,66,0.00,,,0.00,Wunderground v.1.15,2013-08-25 16:22:00,
2013-08-25 12:27:00,76.9,64.7,30.35,WNW,286,1.0,2.0,66,0.00,,,0.00,Wunderground v.1.15,2013-08-25 16:27:00,
2013-08-25 12:35:00,77.4,64.7,30.34,WNW,298,1.0,1.0,65,0.00,,,0.00,Wunderground v.1.15,2013-08-25 16:35:00,
2013-08-25 12:40:00,77.9,63.8,30.34,North,5,1.0,2.0,62,0.00,,,0.00,Wunderground v.1.15,2013-08-25 16:40:00,
2013-08-25 12:47:00,78.7,64.6,30.34,NW,325,1.0,2.0,62,0.00,,,0.00,Wunderground v.1.15,2013-08-25 16:47:00,
2013-08-25 12:52:00,78.4,65.2,30.34,NNE,16,1.0,1.0,64,0.00,,,0.00,Wunderground v.1.15,2013-08-25 16:52:00,
2013-08-25 12:57:00,79.1,63.5,30.34,East,86,2.0,4.0,59,0.00,,,0.00,Wunderground v.1.15,2013-08-25 16:57:00,
2013-08-25 13:02:00,79.6,62.5,30.34,East,86,1.0,1.0,56,0.00,,,0.00,Wunderground v.1.15,2013-08-25 17:02:00,
2013-08-25 13:09:00,78.9,61.9,30.33,East,86,1.0,3.0,56,0.00,,,0.00,Wunderground v.1.15,2013-08-25 17:09:00,
2013-08-25 13:14:00,79.4,63.3,30.33,East,86,1.0,5.0,58,0.00,,,0.00,Wunderground v.1.15,2013-08-25 17:14:00,
2013-08-25 13:19:00,79.7,63.6,30.33,East,86,2.0,5.0,58,0.00,,,0.00,Wunderground v.1.15,2013-08-25 17:19:00,
2013-08-25 13:24:00,80.2,64.6,30.33,East,86,1.0,3.0,59,0.00,,,0.00,Wunderground v.1.15,2013-08-25 17:24:00,
2013-08-25 13:31:00,80.3,63.2,30.33,East,94,1.0,5.0,56,0.00,,,0.00,Wunderground v.1.15,2013-08-25 17:31:00,
2013-08-25 13:36:00,80.5,62.8,30.33,NW,306,1.0,5.0,55,0.00,,,0.00,Wunderground v.1.15,2013-08-25 17:36:00,
2013-08-25 13:41:00,80.4,61.7,30.33,ENE,69,2.0,2.0,53,0.00,,,0.00,Wunderground v.1.15,2013-08-25 17:41:00,
2013-08-25 13:46:00,80.0,62.4,30.33,ESE,120,2.0,6.0,55,0.00,,,0.00,Wunderground v.1.15,2013-08-25 17:46:00,
2013-08-25 13:52:00,79.5,62.4,30.32,ESE,120,1.0,1.0,56,0.00,,,0.00,Wunderground v.1.15,2013-08-25 17:52:00,
2013-08-25 13:57:00,79.7,62.1,30.32,East,90,1.0,1.0,55,0.00,,,0.00,Wunderground v.1.15,2013-08-25 17:57:00,
2013-08-25 14:02:00,80.1,62.0,30.32,East,91,1.0,3.0,54,0.00,,,0.00,Wunderground v.1.15,2013-08-25 18:02:00,
2013-08-25 14:09:00,79.6,62.0,30.32,East,91,1.0,3.0,55,0.00,,,0.00,Wunderground v.1.15,2013-08-25 18:09:00,
2013-08-25 14:14:00,79.4,61.8,30.32,East,91,1.0,3.0,55,0.00,,,0.00,Wunderground v.1.15,2013-08-25 18:14:00,
2013-08-25 14:20:00,79.8,61.7,30.32,WNW,294,1.0,1.0,54,0.00,,,0.00,Wunderground v.1.15,2013-08-25 18:20:00,
2013-08-25 14:25:00,79.6,61.5,30.31,WNW,294,1.0,1.0,54,0.00,,,0.00,Wunderground v.1.15,2013-08-25 18:25:00,
2013-08-25 14:31:00,79.8,63.2,30.31,ENE,61,0.0,2.0,57,0.00,,,0.00,Wunderground v.1.15,2013-08-25 18:31:00,
2013-08-25 14:37:00,80.9,62.7,30.31,ENE,60,1.0,2.0,54,0.00,,,0.00,Wunderground v.1.15,2013-08-25 18:37:00,
2013-08-25 14:42:00,81.6,63.9,30.30,NNW,342,0.0,2.0,55,0.00,,,0.00,Wunderground v.1.15,2013-08-25 18:42:00,
2013-08-25 14:49:00,81.2,63.0,30.30,ESE,119,1.0,3.0,54,0.00,,,0.00,Wunderground v.1.15,2013-08-25 18:49:00,
2013-08-25 14:54:00,81.3,62.0,30.30,SE,127,2.0,4.0,52,0.00,,,0.00,Wunderground v.1.15,2013-08-25 18:54:00,
2013-08-25 14:59:00,81.6,62.8,30.30,SE,127,1.0,4.0,53,0.00,,,0.00,Wunderground v.1.15,2013-08-25 18:59:00,
2013-08-25 15:05:00,80.8,62.1,30.30,East,98,1.0,1.0,53,0.00,,,0.00,Wunderground v.1.15,2013-08-25 19:05:00,
2013-08-25 15:11:00,80.2,61.0,30.29,East,98,1.0,1.0,52,0.00,,,0.00,Wunderground v.1.15,2013-08-25 19:11:00,
2013-08-25 15:17:00,79.7,61.6,30.29,East,98,0.0,1.0,54,0.00,,,0.00,Wunderground v.1.15,2013-08-25 19:17:00,
2013-08-25 15:24:00,80.1,60.3,30.29,East,98,1.0,1.0,51,0.00,,,0.00,Wunderground v.1.15,2013-08-25 19:24:00,
2013-08-25 15:31:00,79.8,60.6,30.29,East,98,1.0,1.0,52,0.00,,,0.00,Wunderground v.1.15,2013-08-25 19:31:00,
2013-08-25 15:36:00,80.0,61.9,30.29,East,98,1.0,2.0,54,0.00,,,0.00,Wunderground v.1.15,2013-08-25 19:36:00,
2013-08-25 15:41:00,80.3,60.5,30.29,ESE,103,1.0,2.0,51,0.00,,,0.00,Wunderground v.1.15,2013-08-25 19:41:00,
2013-08-25 15:46:00,80.9,62.2,30.29,East,95,1.0,5.0,53,0.00,,,0.00,Wunderground v.1.15,2013-08-25 19:46:00,
2013-08-25 15:51:00,81.0,61.2,30.29,East,97,1.0,2.0,51,0.00,,,0.00,Wunderground v.1.15,2013-08-25 19:51:00,
2013-08-25 15:56:00,81.4,62.1,30.28,East,86,1.0,5.0,52,0.00,,,0.00,Wunderground v.1.15,2013-08-25 19:56:00,
2013-08-25 16:02:00,81.8,60.8,30.28,East,86,1.0,2.0,49,0.00,,,0.00,Wunderground v.1.15,2013-08-25 20:02:00,
2013-08-25 16:08:00,81.6,62.3,30.28,East,82,1.0,7.0,52,0.00,,,0.00,Wunderground v.1.15,2013-08-25 20:08:00,
2013-08-25 16:14:00,80.7,60.3,30.27,East,82,2.0,2.0,50,0.00,,,0.00,Wunderground v.1.15,2013-08-25 20:14:00,
2013-08-25 16:21:00,80.0,61.9,30.27,East,82,1.0,5.0,54,0.00,,,0.00,Wunderground v.1.15,2013-08-25 20:21:00,
2013-08-25 16:32:00,81.0,61.7,30.27,East,82,1.0,2.0,52,0.00,,,0.00,Wunderground v.1.15,2013-08-25 20:32:00,
2013-08-25 16:40:00,80.7,60.9,30.27,ESE,108,2.0,4.0,51,0.00,,,0.00,Wunderground v.1.15,2013-08-25 20:40:00,
2013-08-25 16:46:00,80.7,62.5,30.26,East,99,1.0,3.0,54,0.00,,,0.00,Wunderground v.1.15,2013-08-25 20:46:00,
2013-08-25 16:51:00,81.2,61.4,30.27,East,99,1.0,1.0,51,0.00,,,0.00,Wunderground v.1.15,2013-08-25 20:51:00,
2013-08-25 16:56:00,81.3,62.0,30.26,East,99,1.0,2.0,52,0.00,,,0.00,Wunderground v.1.15,2013-08-25 20:56:00,
2013-08-25 17:02:00,81.3,61.4,30.26,ESE,102,1.0,1.0,51,0.00,,,0.00,Wunderground v.1.15,2013-08-25 21:02:00,
2013-08-25 17:09:00,81.4,61.5,30.26,ESE,103,0.0,1.0,51,0.00,,,0.00,Wunderground v.1.15,2013-08-25 21:09:00,
2013-08-25 17:14:00,81.8,61.3,30.26,ESE,104,0.0,1.0,50,0.00,,,0.00,Wunderground v.1.15,2013-08-25 21:14:00,
2013-08-25 17:19:00,81.9,62.5,30.26,ESE,103,0.0,1.0,52,0.00,,,0.00,Wunderground v.1.15,2013-08-25 21:19:00,
2013-08-25 17:25:00,81.3,61.4,30.26,East,101,1.0,5.0,51,0.00,,,0.00,Wunderground v.1.15,2013-08-25 21:25:00,
2013-08-25 17:31:00,81.0,61.7,30.26,ESE,113,1.0,1.0,52,0.00,,,0.00,Wunderground v.1.15,2013-08-25 21:31:00,
2013-08-25 17:36:00,80.7,62.0,30.26,ESE,113,1.0,1.0,53,0.00,,,0.00,Wunderground v.1.15,2013-08-25 21:36:00,
2013-08-25 17:41:00,80.7,62.0,30.26,ESE,113,0.0,1.0,53,0.00,,,0.00,Wunderground v.1.15,2013-08-25 21:41:00,
2013-08-25 17:47:00,80.5,62.3,30.25,ESE,113,1.0,1.0,54,0.00,,,0.00,Wunderground v.1.15,2013-08-25 21:47:00,
2013-08-25 17:54:00,80.5,62.3,30.25,ESE,113,0.0,0.0,54,0.00,,,0.00,Wunderground v.1.15,2013-08-25 21:54:00,
2013-08-25 17:59:00,80.6,62.9,30.25,ESE,113,0.0,0.0,55,0.00,,,0.00,Wunderground v.1.15,2013-08-25 21:59:00,
2013-08-25 18:08:00,79.6,62.5,30.25,ESE,113,1.0,1.0,56,0.00,,,0.00,Wunderground v.1.15,2013-08-25 22:08:00,
2013-08-25 18:13:00,79.1,62.1,30.25,ESE,113,1.0,1.0,56,0.00,,,0.00,Wunderground v.1.15,2013-08-25 22:13:00,
2013-08-25 18:19:00,79.2,63.1,30.25,ESE,113,0.0,1.0,58,0.00,,,0.00,Wunderground v.1.15,2013-08-25 22:19:00,
2013-08-25 18:25:00,79.2,63.1,30.25,ENE,67,0.0,2.0,58,0.00,,,0.00,Wunderground v.1.15,2013-08-25 22:25:00,
2013-08-25 18:31:00,79.2,63.6,30.24,ENE,67,0.0,0.0,59,0.00,,,0.00,Wunderground v.1.15,2013-08-25 22:31:00,
2013-08-25 18:36:00,79.1,63.1,30.24,ENE,67,0.0,0.0,58,0.00,,,0.00,Wunderground v.1.15,2013-08-25 22:36:00,
2013-08-25 18:42:00,78.8,61.8,30.24,ENE,67,0.0,1.0,56,0.00,,,0.00,Wunderground v.1.15,2013-08-25 22:42:00,
2013-08-25 18:48:00,78.5,62.5,30.24,ENE,66,0.0,1.0,58,0.00,,,0.00,Wunderground v.1.15,2013-08-25 22:48:00,
2013-08-25 18:54:00,78.4,63.4,30.24,ENE,66,0.0,0.0,60,0.00,,,0.00,Wunderground v.1.15,2013-08-25 22:54:00,
2013-08-25 19:01:00,78.1,62.6,30.24,ENE,66,0.0,0.0,59,0.00,,,0.00,Wunderground v.1.15,2013-08-25 23:01:00,
2013-08-25 19:07:00,77.5,63.5,30.23,ENE,66,0.0,0.0,62,0.00,,,0.00,Wunderground v.1.15,2013-08-25 23:07:00,
2013-08-25 19:13:00,77.3,63.7,30.23,ENE,66,0.0,0.0,63,0.00,,,0.00,Wunderground v.1.15,2013-08-25 23:13:00,
2013-08-25 19:19:00,77.0,63.4,30.23,ENE,66,0.0,0.0,63,0.00,,,0.00,Wunderground v.1.15,2013-08-25 23:19:00,
2013-08-25 19:24:00,76.6,63.1,30.23,ENE,66,0.0,0.0,63,0.00,,,0.00,Wunderground v.1.15,2013-08-25 23:24:00,
2013-08-25 19:29:00,76.2,62.7,30.24,ENE,66,0.0,0.0,63,0.00,,,0.00,Wunderground v.1.15,2013-08-25 23:29:00,
2013-08-25 19:35:00,75.6,62.6,30.24,ENE,66,0.0,0.0,64,0.00,,,0.00,Wunderground v.1.15,2013-08-25 23:35:00,
2013-08-25 19:40:00,74.9,62.3,30.23,ENE,66,0.0,0.0,65,0.00,,,0.00,Wunderground v.1.15,2013-08-25 23:40:00,
2013-08-25 19:46:00,74.3,62.2,30.24,ENE,66,0.0,0.0,66,0.00,,,0.00,Wunderground v.1.15,2013-08-25 23:46:00,
2013-08-25 19:51:00,73.5,62.3,30.23,ENE,66,0.0,0.0,68,0.00,,,0.00,Wunderground v.1.15,2013-08-25 23:51:00,
2013-08-25 19:57:00,72.8,62.0,30.23,ENE,66,0.0,0.0,69,0.00,,,0.00,Wunderground v.1.15,2013-08-25 23:57:00,
2013-08-25 20:02:00,72.1,62.2,30.23,ENE,66,0.0,0.0,71,0.00,,,0.00,Wunderground v.1.15,2013-08-26 00:02:00,
2013-08-25 20:09:00,71.4,61.9,30.23,ENE,66,0.0,0.0,72,0.00,,,0.00,Wunderground v.1.15,2013-08-26 00:09:00,
2013-08-25 20:14:00,71.2,62.1,30.23,ENE,66,0.0,0.0,73,0.00,,,0.00,Wunderground v.1.15,2013-08-26 00:14:00,
2013-08-25 20:20:00,70.9,62.2,30.23,ENE,66,0.0,0.0,74,0.00,,,0.00,Wunderground v.1.15,2013-08-26 00:20:00,
2013-08-25 20:26:00,70.4,61.7,30.23,ENE,66,0.0,0.0,74,0.00,,,0.00,Wunderground v.1.15,2013-08-26 00:26:00,
2013-08-25 20:32:00,69.8,61.9,30.23,ENE,66,0.0,0.0,76,0.00,,,0.00,Wunderground v.1.15,2013-08-26 00:32:00,
2013-08-25 20:37:00,69.3,61.8,30.23,ENE,66,0.0,0.0,77,0.00,,,0.00,Wunderground v.1.15,2013-08-26 00:37:00,
2013-08-25 20:42:00,68.9,61.8,30.23,ENE,66,0.0,0.0,78,0.00,,,0.00,Wunderground v.1.15,2013-08-26 00:42:00,
2013-08-25 20:47:00,68.6,61.8,30.24,ENE,66,0.0,0.0,79,0.00,,,0.00,Wunderground v.1.15,2013-08-26 00:47:00,
2013-08-25 20:54:00,68.1,61.7,30.23,ENE,66,0.0,0.0,80,0.00,,,0.00,Wunderground v.1.15,2013-08-26 00:54:00,
2013-08-25 21:01:00,67.7,61.7,30.23,ENE,66,0.0,0.0,81,0.00,,,0.00,Wunderground v.1.15,2013-08-26 01:01:00,
2013-08-25 21:06:00,67.3,61.6,30.23,ENE,66,0.0,0.0,82,0.00,,,0.00,Wunderground v.1.15,2013-08-26 01:06:00,
2013-08-25 21:11:00,67.0,61.3,30.23,ENE,66,0.0,0.0,82,0.00,,,0.00,Wunderground v.1.15,2013-08-26 01:11:00,
2013-08-25 21:16:00,66.6,61.3,30.24,ENE,66,0.0,0.0,83,0.00,,,0.00,Wunderground v.1.15,2013-08-26 01:16:00,
2013-08-25 21:22:00,65.9,60.9,30.24,ENE,66,0.0,0.0,84,0.00,,,0.00,Wunderground v.1.15,2013-08-26 01:22:00,
2013-08-25 21:27:00,65.4,60.4,30.25,ENE,66,0.0,0.0,84,0.00,,,0.00,Wunderground v.1.15,2013-08-26 01:27:00,
2013-08-25 21:38:00,64.2,59.6,30.25,ENE,66,0.0,0.0,85,0.00,,,0.00,Wunderground v.1.15,2013-08-26 01:38:00,
2013-08-25 21:44:00,63.8,59.5,30.24,ENE,66,0.0,0.0,86,0.00,,,0.00,Wunderground v.1.15,2013-08-26 01:44:00,
2013-08-25 21:52:00,63.2,59.3,30.25,ENE,66,0.0,0.0,87,0.00,,,0.00,Wunderground v.1.15,2013-08-26 01:52:00,
2013-08-25 21:58:00,62.8,58.9,30.25,ENE,66,0.0,0.0,87,0.00,,,0.00,Wunderground v.1.15,2013-08-26 01:58:00,
2013-08-25 22:08:00,62.5,58.9,30.25,ENE,66,0.0,0.0,88,0.00,,,0.00,Wunderground v.1.15,2013-08-26 02:08:00,
2013-08-25 22:14:00,62.7,59.7,30.25,ENE,66,0.0,0.0,90,0.00,,,0.00,Wunderground v.1.15,2013-08-26 02:14:00,
2013-08-25 22:19:00,63.0,60.0,30.25,ENE,66,0.0,0.0,90,0.00,,,0.00,Wunderground v.1.15,2013-08-26 02:19:00,
2013-08-25 22:26:00,62.9,59.6,30.25,ENE,66,0.0,1.0,89,0.00,,,0.00,Wunderground v.1.15,2013-08-26 02:26:00,
2013-08-25 22:31:00,62.8,59.8,30.25,ENE,66,0.0,0.0,90,0.00,,,0.00,Wunderground v.1.15,2013-08-26 02:31:00,
2013-08-25 22:37:00,62.6,59.3,30.26,ENE,66,0.0,0.0,89,0.00,,,0.00,Wunderground v.1.15,2013-08-26 02:37:00,
2013-08-25 22:44:00,62.5,59.5,30.26,ENE,66,0.0,0.0,90,0.00,,,0.00,Wunderground v.1.15,2013-08-26 02:44:00,
2013-08-25 22:52:00,62.5,59.5,30.26,ENE,66,0.0,0.0,90,0.00,,,0.00,Wunderground v.1.15,2013-08-26 02:52:00,
2013-08-25 22:58:00,62.2,59.2,30.26,ENE,66,0.0,0.0,90,0.00,,,0.00,Wunderground v.1.15,2013-08-26 02:58:00,
2013-08-25 23:06:00,61.3,58.0,30.26,ENE,66,0.0,0.0,89,0.00,,,0.00,Wunderground v.1.15,2013-08-26 03:06:00,
2013-08-25 23:11:00,60.9,57.9,30.26,ENE,66,0.0,0.0,90,0.00,,,0.00,Wunderground v.1.15,2013-08-26 03:11:00,
2013-08-25 23:17:00,60.8,58.2,30.26,ENE,66,0.0,0.0,91,0.00,,,0.00,Wunderground v.1.15,2013-08-26 03:17:00,
2013-08-25 23:22:00,60.7,58.1,30.26,ENE,66,0.0,0.0,91,0.00,,,0.00,Wunderground v.1.15,2013-08-26 03:22:00,
2013-08-25 23:28:00,60.6,58.0,30.25,ENE,66,0.0,0.0,91,0.00,,,0.00,Wunderground v.1.15,2013-08-26 03:28:00,
2013-08-25 23:36:00,60.4,57.8,30.25,ENE,66,0.0,0.0,91,0.00,,,0.00,Wunderground v.1.15,2013-08-26 03:36:00,
2013-08-25 23:44:00,60.1,57.8,30.25,ENE,66,0.0,0.0,92,0.00,,,0.00,Wunderground v.1.15,2013-08-26 03:44:00,
2013-08-25 23:49:00,59.9,57.6,30.25,ENE,66,0.0,0.0,92,0.00,,,0.00,Wunderground v.1.15,2013-08-26 03:49:00,
2013-08-25 23:54:00,59.8,57.5,30.25,ENE,66,0.0,0.0,92,0.00,,,0.00,Wunderground v.1.15,2013-08-26 03:54:00,
2013-08-25 23:59:00,59.7,57.4,30.25,ENE,66,0.0,0.0,92,0.00,,,0.00,Wunderground v.1.15,2013-08-26 03:59:00,